sensor_id;sensor_type;location;lat;lon;timestamp;temperature;humidity
8910;DHT22;4490;49.072;8.804;2023-04-03T00:01:07;6.20;84.40
8910;DHT22;4490;49.072;8.804;2023-04-03T00:03:33;6.20;84.60
8910;DHT22;4490;49.072;8.804;2023-04-03T00:05:59;6.20;84.30
8910;DHT22;4490;49.072;8.804;2023-04-03T00:08:24;6.20;84.20
8910;DHT22;4490;49.072;8.804;2023-04-03T00:10:50;6.20;83.60
8910;DHT22;4490;49.072;8.804;2023-04-03T00:13:16;6.10;83.60
8910;DHT22;4490;49.072;8.804;2023-04-03T00:15:42;6.10;83.70
8910;DHT22;4490;49.072;8.804;2023-04-03T00:18:08;6.10;83.90
8910;DHT22;4490;49.072;8.804;2023-04-03T00:20:34;6.20;83.50
8910;DHT22;4490;49.072;8.804;2023-04-03T00:23:01;6.10;83.80
8910;DHT22;4490;49.072;8.804;2023-04-03T00:25:26;6.10;84.00
8910;DHT22;4490;49.072;8.804;2023-04-03T00:27:52;6.10;84.00
8910;DHT22;4490;49.072;8.804;2023-04-03T00:30:20;6.10;83.90
8910;DHT22;4490;49.072;8.804;2023-04-03T00:32:48;6.10;84.00
8910;DHT22;4490;49.072;8.804;2023-04-03T00:35:14;6.10;84.00
8910;DHT22;4490;49.072;8.804;2023-04-03T00:37:42;6.10;83.80
8910;DHT22;4490;49.072;8.804;2023-04-03T00:40:09;6.10;84.00
8910;DHT22;4490;49.072;8.804;2023-04-03T00:42:37;6.10;84.10
8910;DHT22;4490;49.072;8.804;2023-04-03T00:47:29;6.00;83.00
8910;DHT22;4490;49.072;8.804;2023-04-03T00:49:56;5.90;82.90
8910;DHT22;4490;49.072;8.804;2023-04-03T00:52:26;5.90;83.40
8910;DHT22;4490;49.072;8.804;2023-04-03T00:54:54;5.90;83.30
8910;DHT22;4490;49.072;8.804;2023-04-03T00:57:22;5.80;83.00
8910;DHT22;4490;49.072;8.804;2023-04-03T00:59:55;5.80;83.30
8910;DHT22;4490;49.072;8.804;2023-04-03T01:02:22;5.80;83.50
8910;DHT22;4490;49.072;8.804;2023-04-03T01:04:48;5.80;83.10
8910;DHT22;4490;49.072;8.804;2023-04-03T01:07:20;5.80;83.30
8910;DHT22;4490;49.072;8.804;2023-04-03T01:09:49;5.80;83.10
8910;DHT22;4490;49.072;8.804;2023-04-03T01:14:45;5.70;82.70
8910;DHT22;4490;49.072;8.804;2023-04-03T01:17:40;5.60;82.60
8910;DHT22;4490;49.072;8.804;2023-04-03T01:20:50;5.60;82.80
8910;DHT22;4490;49.072;8.804;2023-04-03T01:24:17;5.60;83.20
8910;DHT22;4490;49.072;8.804;2023-04-03T01:26:24;5.50;84.00
8910;DHT22;4490;49.072;8.804;2023-04-03T01:28:53;5.40;83.20
8910;DHT22;4490;49.072;8.804;2023-04-03T01:31:26;5.40;83.40
8910;DHT22;4490;49.072;8.804;2023-04-03T01:33:54;5.40;83.50
8910;DHT22;4490;49.072;8.804;2023-04-03T01:36:24;5.30;83.50
8910;DHT22;4490;49.072;8.804;2023-04-03T01:38:51;5.30;83.60
8910;DHT22;4490;49.072;8.804;2023-04-03T01:41:18;5.30;83.50
8910;DHT22;4490;49.072;8.804;2023-04-03T01:43:43;5.30;83.50
8910;DHT22;4490;49.072;8.804;2023-04-03T01:46:09;5.20;83.40
8910;DHT22;4490;49.072;8.804;2023-04-03T01:48:35;5.20;83.60
8910;DHT22;4490;49.072;8.804;2023-04-03T01:51:01;5.20;83.80
8910;DHT22;4490;49.072;8.804;2023-04-03T01:53:26;5.20;84.00
8910;DHT22;4490;49.072;8.804;2023-04-03T01:55:52;5.10;84.10
8910;DHT22;4490;49.072;8.804;2023-04-03T01:58:18;5.10;84.40
8910;DHT22;4490;49.072;8.804;2023-04-03T02:00:43;5.10;84.60
8910;DHT22;4490;49.072;8.804;2023-04-03T02:03:15;5.10;84.80
8910;DHT22;4490;49.072;8.804;2023-04-03T02:05:40;5.00;84.70
8910;DHT22;4490;49.072;8.804;2023-04-03T02:08:06;5.00;84.90
8910;DHT22;4490;49.072;8.804;2023-04-03T02:10:32;5.00;85.10
8910;DHT22;4490;49.072;8.804;2023-04-03T02:12:58;5.00;85.20
8910;DHT22;4490;49.072;8.804;2023-04-03T02:15:24;5.00;85.40
8910;DHT22;4490;49.072;8.804;2023-04-03T02:17:49;4.90;85.50
8910;DHT22;4490;49.072;8.804;2023-04-03T02:20:15;4.90;85.60
8910;DHT22;4490;49.072;8.804;2023-04-03T02:22:41;4.90;85.80
8910;DHT22;4490;49.072;8.804;2023-04-03T02:25:07;4.90;85.90
8910;DHT22;4490;49.072;8.804;2023-04-03T02:27:32;4.90;86.20
8910;DHT22;4490;49.072;8.804;2023-04-03T02:29:58;4.90;86.30
8910;DHT22;4490;49.072;8.804;2023-04-03T02:32:24;4.80;86.30
8910;DHT22;4490;49.072;8.804;2023-04-03T02:34:49;4.80;86.40
8910;DHT22;4490;49.072;8.804;2023-04-03T02:37:15;4.90;86.30
8910;DHT22;4490;49.072;8.804;2023-04-03T02:39:41;4.80;86.00
8910;DHT22;4490;49.072;8.804;2023-04-03T02:42:06;4.80;86.20
8910;DHT22;4490;49.072;8.804;2023-04-03T02:44:32;4.70;86.30
8910;DHT22;4490;49.072;8.804;2023-04-03T02:46:58;4.70;86.10
8910;DHT22;4490;49.072;8.804;2023-04-03T02:49:24;4.70;86.30
8910;DHT22;4490;49.072;8.804;2023-04-03T02:51:50;4.70;86.40
8910;DHT22;4490;49.072;8.804;2023-04-03T02:54:16;4.70;86.10
8910;DHT22;4490;49.072;8.804;2023-04-03T02:56:42;4.70;86.30
8910;DHT22;4490;49.072;8.804;2023-04-03T02:59:08;4.70;86.40
8910;DHT22;4490;49.072;8.804;2023-04-03T03:01:33;4.70;86.60
8910;DHT22;4490;49.072;8.804;2023-04-03T03:04:00;4.60;86.50
8910;DHT22;4490;49.072;8.804;2023-04-03T03:06:26;4.70;86.60
8910;DHT22;4490;49.072;8.804;2023-04-03T03:08:52;4.70;86.60
8910;DHT22;4490;49.072;8.804;2023-04-03T03:11:18;4.70;86.60
8910;DHT22;4490;49.072;8.804;2023-04-03T03:13:43;4.70;87.50
8910;DHT22;4490;49.072;8.804;2023-04-03T03:16:09;4.70;86.80
8910;DHT22;4490;49.072;8.804;2023-04-03T03:18:35;4.70;87.10
8910;DHT22;4490;49.072;8.804;2023-04-03T03:21:02;4.70;87.20
8910;DHT22;4490;49.072;8.804;2023-04-03T03:23:30;4.60;87.40
8910;DHT22;4490;49.072;8.804;2023-04-03T03:26:02;4.70;87.60
8910;DHT22;4490;49.072;8.804;2023-04-03T03:28:28;4.70;87.50
8910;DHT22;4490;49.072;8.804;2023-04-03T03:30:54;4.70;87.80
8910;DHT22;4490;49.072;8.804;2023-04-03T03:33:20;4.70;88.00
8910;DHT22;4490;49.072;8.804;2023-04-03T03:35:45;4.70;88.20
8910;DHT22;4490;49.072;8.804;2023-04-03T03:38:11;4.80;88.40
8910;DHT22;4490;49.072;8.804;2023-04-03T03:40:37;4.80;88.40
8910;DHT22;4490;49.072;8.804;2023-04-03T03:43:03;4.90;88.60
8910;DHT22;4490;49.072;8.804;2023-04-03T03:45:29;4.90;88.60
8910;DHT22;4490;49.072;8.804;2023-04-03T03:47:54;4.90;88.60
8910;DHT22;4490;49.072;8.804;2023-04-03T03:50:20;4.90;88.70
8910;DHT22;4490;49.072;8.804;2023-04-03T03:52:46;4.90;88.80
8910;DHT22;4490;49.072;8.804;2023-04-03T03:55:12;5.00;88.90
8910;DHT22;4490;49.072;8.804;2023-04-03T03:57:37;5.00;88.90
8910;DHT22;4490;49.072;8.804;2023-04-03T04:00:04;5.00;88.80
8910;DHT22;4490;49.072;8.804;2023-04-03T04:02:29;5.00;88.80
8910;DHT22;4490;49.072;8.804;2023-04-03T04:04:55;5.00;88.70
8910;DHT22;4490;49.072;8.804;2023-04-03T04:07:21;5.00;88.60
8910;DHT22;4490;49.072;8.804;2023-04-03T04:09:47;5.00;88.50
8910;DHT22;4490;49.072;8.804;2023-04-03T04:12:13;5.00;88.50
8910;DHT22;4490;49.072;8.804;2023-04-03T04:14:38;5.00;88.40
8910;DHT22;4490;49.072;8.804;2023-04-03T04:17:04;5.00;88.40
8910;DHT22;4490;49.072;8.804;2023-04-03T04:19:30;5.00;88.30
8910;DHT22;4490;49.072;8.804;2023-04-03T04:21:56;5.00;88.40
8910;DHT22;4490;49.072;8.804;2023-04-03T04:24:21;4.90;89.40
8910;DHT22;4490;49.072;8.804;2023-04-03T04:26:48;4.90;89.10
8910;DHT22;4490;49.072;8.804;2023-04-03T04:29:14;4.80;89.20
8910;DHT22;4490;49.072;8.804;2023-04-03T04:31:40;4.80;89.00
8910;DHT22;4490;49.072;8.804;2023-04-03T04:34:06;4.70;88.80
8910;DHT22;4490;49.072;8.804;2023-04-03T04:36:31;4.60;88.70
8910;DHT22;4490;49.072;8.804;2023-04-03T04:38:57;4.60;88.90
8910;DHT22;4490;49.072;8.804;2023-04-03T04:41:24;4.50;88.80
8910;DHT22;4490;49.072;8.804;2023-04-03T04:43:50;4.40;88.90
8910;DHT22;4490;49.072;8.804;2023-04-03T04:46:16;4.40;89.20
8910;DHT22;4490;49.072;8.804;2023-04-03T04:48:43;4.30;89.30
8910;DHT22;4490;49.072;8.804;2023-04-03T04:51:08;4.30;89.40
8910;DHT22;4490;49.072;8.804;2023-04-03T04:53:34;4.20;89.60
8910;DHT22;4490;49.072;8.804;2023-04-03T04:56:00;4.20;89.70
8910;DHT22;4490;49.072;8.804;2023-04-03T04:58:25;4.20;89.80
8910;DHT22;4490;49.072;8.804;2023-04-03T05:01:02;4.20;89.60
8910;DHT22;4490;49.072;8.804;2023-04-03T05:03:28;4.10;89.60
8910;DHT22;4490;49.072;8.804;2023-04-03T05:05:53;4.00;89.50
8910;DHT22;4490;49.072;8.804;2023-04-03T05:08:19;4.00;89.90
8910;DHT22;4490;49.072;8.804;2023-04-03T05:10:45;3.90;90.00
8910;DHT22;4490;49.072;8.804;2023-04-03T05:13:11;3.90;90.30
8910;DHT22;4490;49.072;8.804;2023-04-03T05:15:37;3.90;90.40
8910;DHT22;4490;49.072;8.804;2023-04-03T05:18:03;3.80;90.40
8910;DHT22;4490;49.072;8.804;2023-04-03T05:20:28;3.80;90.50
8910;DHT22;4490;49.072;8.804;2023-04-03T05:22:54;3.80;90.50
8910;DHT22;4490;49.072;8.804;2023-04-03T05:25:20;3.90;90.60
8910;DHT22;4490;49.072;8.804;2023-04-03T05:27:46;3.90;90.60
8910;DHT22;4490;49.072;8.804;2023-04-03T05:30:11;3.90;90.70
8910;DHT22;4490;49.072;8.804;2023-04-03T05:32:37;4.00;90.70
8910;DHT22;4490;49.072;8.804;2023-04-03T05:35:04;4.00;90.70
8910;DHT22;4490;49.072;8.804;2023-04-03T05:37:30;4.00;90.70
8910;DHT22;4490;49.072;8.804;2023-04-03T05:39:55;4.00;90.60
8910;DHT22;4490;49.072;8.804;2023-04-03T05:42:21;4.10;90.70
8910;DHT22;4490;49.072;8.804;2023-04-03T05:44:46;4.10;90.70
8910;DHT22;4490;49.072;8.804;2023-04-03T05:47:12;4.10;90.70
8910;DHT22;4490;49.072;8.804;2023-04-03T05:49:38;4.10;90.70
8910;DHT22;4490;49.072;8.804;2023-04-03T05:54:50;4.20;90.80
8910;DHT22;4490;49.072;8.804;2023-04-03T05:57:16;4.30;90.90
8910;DHT22;4490;49.072;8.804;2023-04-03T05:59:43;4.30;90.90
8910;DHT22;4490;49.072;8.804;2023-04-03T06:02:13;4.40;91.00
8910;DHT22;4490;49.072;8.804;2023-04-03T06:04:39;4.40;91.00
8910;DHT22;4490;49.072;8.804;2023-04-03T06:07:05;4.40;91.00
8910;DHT22;4490;49.072;8.804;2023-04-03T06:09:31;4.50;91.10
8910;DHT22;4490;49.072;8.804;2023-04-03T06:11:57;4.50;91.10
8910;DHT22;4490;49.072;8.804;2023-04-03T06:14:25;4.50;91.10
8910;DHT22;4490;49.072;8.804;2023-04-03T06:16:51;4.60;91.10
8910;DHT22;4490;49.072;8.804;2023-04-03T06:19:17;4.60;91.10
8910;DHT22;4490;49.072;8.804;2023-04-03T06:21:43;4.70;91.20
8910;DHT22;4490;49.072;8.804;2023-04-03T06:24:09;4.70;91.30
8910;DHT22;4490;49.072;8.804;2023-04-03T06:26:37;4.70;91.30
8910;DHT22;4490;49.072;8.804;2023-04-03T06:29:03;4.70;91.50
8910;DHT22;4490;49.072;8.804;2023-04-03T06:31:29;4.80;91.60
8910;DHT22;4490;49.072;8.804;2023-04-03T06:33:55;4.80;91.50
8910;DHT22;4490;49.072;8.804;2023-04-03T06:36:21;4.80;91.60
8910;DHT22;4490;49.072;8.804;2023-04-03T06:38:48;4.90;91.50
8910;DHT22;4490;49.072;8.804;2023-04-03T06:41:13;4.90;91.40
8910;DHT22;4490;49.072;8.804;2023-04-03T06:43:40;4.90;91.30
8910;DHT22;4490;49.072;8.804;2023-04-03T06:46:05;4.90;91.10
8910;DHT22;4490;49.072;8.804;2023-04-03T06:48:31;5.00;91.20
8910;DHT22;4490;49.072;8.804;2023-04-03T06:50:57;5.10;91.50
8910;DHT22;4490;49.072;8.804;2023-04-03T06:53:23;5.20;91.60
8910;DHT22;4490;49.072;8.804;2023-04-03T06:55:49;5.40;91.20
8910;DHT22;4490;49.072;8.804;2023-04-03T06:58:15;5.50;90.90
8910;DHT22;4490;49.072;8.804;2023-04-03T07:00:42;5.60;90.90
8910;DHT22;4490;49.072;8.804;2023-04-03T07:03:08;5.70;91.30
8910;DHT22;4490;49.072;8.804;2023-04-03T07:05:34;6.00;91.60
8910;DHT22;4490;49.072;8.804;2023-04-03T07:08:00;6.30;91.20
8910;DHT22;4490;49.072;8.804;2023-04-03T07:10:26;6.50;90.70
8910;DHT22;4490;49.072;8.804;2023-04-03T07:12:52;6.60;89.90
8910;DHT22;4490;49.072;8.804;2023-04-03T07:15:20;6.60;89.10
8910;DHT22;4490;49.072;8.804;2023-04-03T07:17:46;6.70;89.10
8910;DHT22;4490;49.072;8.804;2023-04-03T07:20:12;6.70;89.30
8910;DHT22;4490;49.072;8.804;2023-04-03T07:22:37;6.80;89.30
8910;DHT22;4490;49.072;8.804;2023-04-03T07:25:03;6.90;89.20
8910;DHT22;4490;49.072;8.804;2023-04-03T07:27:29;7.00;89.50
8910;DHT22;4490;49.072;8.804;2023-04-03T07:29:55;7.20;89.50
8910;DHT22;4490;49.072;8.804;2023-04-03T07:32:21;7.40;87.90
8910;DHT22;4490;49.072;8.804;2023-04-03T07:34:47;7.50;88.10
8910;DHT22;4490;49.072;8.804;2023-04-03T07:37:13;7.60;86.80
8910;DHT22;4490;49.072;8.804;2023-04-03T07:39:38;7.50;85.40
8910;DHT22;4490;49.072;8.804;2023-04-03T07:42:04;7.50;86.20
8910;DHT22;4490;49.072;8.804;2023-04-03T07:44:30;7.60;86.50
8910;DHT22;4490;49.072;8.804;2023-04-03T07:46:56;7.70;87.40
8910;DHT22;4490;49.072;8.804;2023-04-03T07:49:22;8.00;87.20
8910;DHT22;4490;49.072;8.804;2023-04-03T07:51:51;8.20;85.20
8910;DHT22;4490;49.072;8.804;2023-04-03T07:54:18;8.30;83.70
8910;DHT22;4490;49.072;8.804;2023-04-03T07:56:44;8.30;84.10
8910;DHT22;4490;49.072;8.804;2023-04-03T07:59:10;8.30;83.50
8910;DHT22;4490;49.072;8.804;2023-04-03T08:01:37;8.40;83.10
8910;DHT22;4490;49.072;8.804;2023-04-03T08:04:02;8.30;83.00
8910;DHT22;4490;49.072;8.804;2023-04-03T08:06:28;8.20;82.50
8910;DHT22;4490;49.072;8.804;2023-04-03T08:08:57;8.20;83.50
8910;DHT22;4490;49.072;8.804;2023-04-03T08:11:24;8.40;83.80
8910;DHT22;4490;49.072;8.804;2023-04-03T08:13:52;8.50;82.40
8910;DHT22;4490;49.072;8.804;2023-04-03T08:16:20;8.60;82.30
8910;DHT22;4490;49.072;8.804;2023-04-03T08:18:48;8.60;82.30
8910;DHT22;4490;49.072;8.804;2023-04-03T08:21:14;8.60;82.20
8910;DHT22;4490;49.072;8.804;2023-04-03T08:23:40;8.60;82.30
8910;DHT22;4490;49.072;8.804;2023-04-03T08:26:11;8.60;82.60
8910;DHT22;4490;49.072;8.804;2023-04-03T08:28:37;8.70;83.20
8910;DHT22;4490;49.072;8.804;2023-04-03T08:31:05;8.80;82.90
8910;DHT22;4490;49.072;8.804;2023-04-03T08:33:32;9.10;82.50
8910;DHT22;4490;49.072;8.804;2023-04-03T08:35:57;9.30;81.90
8910;DHT22;4490;49.072;8.804;2023-04-03T08:38:23;9.50;81.00
8910;DHT22;4490;49.072;8.804;2023-04-03T08:51:59;9.80;75.80
8910;DHT22;4490;49.072;8.804;2023-04-03T08:57:15;9.50;75.70
8910;DHT22;4490;49.072;8.804;2023-04-03T08:59:44;9.40;75.40
8910;DHT22;4490;49.072;8.804;2023-04-03T09:05:45;9.20;76.10
8910;DHT22;4490;49.072;8.804;2023-04-03T09:08:22;9.10;76.20
8910;DHT22;4490;49.072;8.804;2023-04-03T09:10:51;9.00;75.70
8910;DHT22;4490;49.072;8.804;2023-04-03T09:13:21;8.70;75.20
8910;DHT22;4490;49.072;8.804;2023-04-03T09:15:50;8.60;75.40
8910;DHT22;4490;49.072;8.804;2023-04-03T09:18:28;8.50;75.80
8910;DHT22;4490;49.072;8.804;2023-04-03T09:21:17;8.50;74.50
8910;DHT22;4490;49.072;8.804;2023-04-03T09:23:50;8.40;74.90
8910;DHT22;4490;49.072;8.804;2023-04-03T09:26:24;8.40;75.80
8910;DHT22;4490;49.072;8.804;2023-04-03T09:28:58;8.50;76.50
8910;DHT22;4490;49.072;8.804;2023-04-03T09:31:42;8.70;75.90
8910;DHT22;4490;49.072;8.804;2023-04-03T09:34:20;8.70;75.30
8910;DHT22;4490;49.072;8.804;2023-04-03T09:36:53;8.80;76.10
8910;DHT22;4490;49.072;8.804;2023-04-03T09:39:28;9.10;76.80
8910;DHT22;4490;49.072;8.804;2023-04-03T09:41:57;9.60;76.30
8910;DHT22;4490;49.072;8.804;2023-04-03T09:44:29;9.90;74.40
8910;DHT22;4490;49.072;8.804;2023-04-03T09:46:55;10.10;71.20
8910;DHT22;4490;49.072;8.804;2023-04-03T09:49:21;10.00;70.50
8910;DHT22;4490;49.072;8.804;2023-04-03T09:51:47;9.90;72.30
8910;DHT22;4490;49.072;8.804;2023-04-03T09:57:01;9.80;72.80
8910;DHT22;4490;49.072;8.804;2023-04-03T09:59:30;10.00;72.50
8910;DHT22;4490;49.072;8.804;2023-04-03T10:02:43;10.50;71.80
8910;DHT22;4490;49.072;8.804;2023-04-03T10:04:44;11.00;70.60
8910;DHT22;4490;49.072;8.804;2023-04-03T10:07:28;11.50;69.30
8910;DHT22;4490;49.072;8.804;2023-04-03T10:09:55;11.80;66.20
8910;DHT22;4490;49.072;8.804;2023-04-03T10:12:21;12.10;67.80
8910;DHT22;4490;49.072;8.804;2023-04-03T10:14:54;12.40;66.50
8910;DHT22;4490;49.072;8.804;2023-04-03T10:17:49;12.50;64.60
8910;DHT22;4490;49.072;8.804;2023-04-03T10:20:39;12.40;63.00
8910;DHT22;4490;49.072;8.804;2023-04-03T10:23:16;12.50;66.40
8910;DHT22;4490;49.072;8.804;2023-04-03T10:25:57;12.70;67.40
8910;DHT22;4490;49.072;8.804;2023-04-03T10:52:38;10.40;67.00
8910;DHT22;4490;49.072;8.804;2023-04-03T10:55:23;10.30;66.50
8910;DHT22;4490;49.072;8.804;2023-04-03T10:58:00;10.20;66.90
8910;DHT22;4490;49.072;8.804;2023-04-03T11:00:48;10.20;66.90
8910;DHT22;4490;49.072;8.804;2023-04-03T11:03:45;10.10;66.50
8910;DHT22;4490;49.072;8.804;2023-04-03T11:06:13;10.00;65.70
8910;DHT22;4490;49.072;8.804;2023-04-03T11:08:53;9.80;67.50
8910;DHT22;4490;49.072;8.804;2023-04-03T11:11:25;9.70;66.90
8910;DHT22;4490;49.072;8.804;2023-04-03T11:14:00;9.50;68.00
8910;DHT22;4490;49.072;8.804;2023-04-03T11:16:28;9.40;68.00
8910;DHT22;4490;49.072;8.804;2023-04-03T11:20:17;9.40;68.40
8910;DHT22;4490;49.072;8.804;2023-04-03T11:22:33;9.60;68.20
8910;DHT22;4490;49.072;8.804;2023-04-03T11:27:57;9.70;68.40
8910;DHT22;4490;49.072;8.804;2023-04-03T11:30:58;9.80;68.20
8910;DHT22;4490;49.072;8.804;2023-04-03T11:33:52;9.80;68.80
8910;DHT22;4490;49.072;8.804;2023-04-03T11:36:28;9.80;68.90
8910;DHT22;4490;49.072;8.804;2023-04-03T11:38:58;9.80;69.30
8910;DHT22;4490;49.072;8.804;2023-04-03T11:41:27;9.80;69.50
8910;DHT22;4490;49.072;8.804;2023-04-03T11:44:03;9.80;68.80
8910;DHT22;4490;49.072;8.804;2023-04-03T11:46:49;9.90;68.80
8910;DHT22;4490;49.072;8.804;2023-04-03T12:07:09;9.70;66.20
8910;DHT22;4490;49.072;8.804;2023-04-03T12:11:47;9.60;67.40
8910;DHT22;4490;49.072;8.804;2023-04-03T12:14:15;9.50;66.10
8910;DHT22;4490;49.072;8.804;2023-04-03T12:16:45;9.50;66.80
8910;DHT22;4490;49.072;8.804;2023-04-03T12:40:39;9.00;68.70
8910;DHT22;4490;49.072;8.804;2023-04-03T12:46:02;9.30;69.20
8910;DHT22;4490;49.072;8.804;2023-04-03T12:48:31;9.50;69.20
8910;DHT22;4490;49.072;8.804;2023-04-03T12:50:58;9.60;66.50
8910;DHT22;4490;49.072;8.804;2023-04-03T12:53:32;9.70;66.50
8910;DHT22;4490;49.072;8.804;2023-04-03T12:56:25;9.80;66.90
8910;DHT22;4490;49.072;8.804;2023-04-03T12:58:53;9.80;66.70
8910;DHT22;4490;49.072;8.804;2023-04-03T13:01:26;9.80;66.50
8910;DHT22;4490;49.072;8.804;2023-04-03T13:03:56;9.80;65.40
8910;DHT22;4490;49.072;8.804;2023-04-03T13:06:26;9.80;65.50
8910;DHT22;4490;49.072;8.804;2023-04-03T13:08:54;9.80;65.60
8910;DHT22;4490;49.072;8.804;2023-04-03T13:11:24;9.80;65.40
8910;DHT22;4490;49.072;8.804;2023-04-03T13:13:58;9.70;64.90
8910;DHT22;4490;49.072;8.804;2023-04-03T13:16:24;9.60;65.20
8910;DHT22;4490;49.072;8.804;2023-04-03T13:18:51;9.60;65.60
8910;DHT22;4490;49.072;8.804;2023-04-03T13:21:21;9.50;66.00
8910;DHT22;4490;49.072;8.804;2023-04-03T13:23:51;9.50;65.60
8910;DHT22;4490;49.072;8.804;2023-04-03T13:26:18;9.50;65.70
8910;DHT22;4490;49.072;8.804;2023-04-03T13:28:45;9.40;65.80
8910;DHT22;4490;49.072;8.804;2023-04-03T13:33:53;9.30;64.90
8910;DHT22;4490;49.072;8.804;2023-04-03T13:36:23;9.30;65.40
8910;DHT22;4490;49.072;8.804;2023-04-03T13:41:35;9.30;64.70
8910;DHT22;4490;49.072;8.804;2023-04-03T13:44:32;9.30;64.60
8910;DHT22;4490;49.072;8.804;2023-04-03T13:49:42;9.40;64.60
8910;DHT22;4490;49.072;8.804;2023-04-03T13:52:42;9.50;64.40
8910;DHT22;4490;49.072;8.804;2023-04-03T14:02:59;9.30;65.30
8910;DHT22;4490;49.072;8.804;2023-04-03T14:05:26;9.30;65.80
8910;DHT22;4490;49.072;8.804;2023-04-03T14:07:53;9.30;65.70
8910;DHT22;4490;49.072;8.804;2023-04-03T14:10:20;9.40;65.70
8910;DHT22;4490;49.072;8.804;2023-04-03T14:12:45;9.50;65.60
8910;DHT22;4490;49.072;8.804;2023-04-03T14:15:26;9.50;65.20
8910;DHT22;4490;49.072;8.804;2023-04-03T14:17:53;9.50;64.00
8910;DHT22;4490;49.072;8.804;2023-04-03T14:20:22;9.50;63.60
8910;DHT22;4490;49.072;8.804;2023-04-03T14:22:49;9.50;63.80
8910;DHT22;4490;49.072;8.804;2023-04-03T14:25:15;9.50;64.60
8910;DHT22;4490;49.072;8.804;2023-04-03T14:27:49;9.60;65.00
8910;DHT22;4490;49.072;8.804;2023-04-03T14:30:23;9.70;65.60
8910;DHT22;4490;49.072;8.804;2023-04-03T14:32:50;9.70;64.50
8910;DHT22;4490;49.072;8.804;2023-04-03T14:35:16;9.70;63.40
8910;DHT22;4490;49.072;8.804;2023-04-03T14:37:43;9.70;63.70
8910;DHT22;4490;49.072;8.804;2023-04-03T14:40:17;9.60;62.30
8910;DHT22;4490;49.072;8.804;2023-04-03T14:42:43;9.50;62.10
8910;DHT22;4490;49.072;8.804;2023-04-03T14:45:11;9.40;62.10
8910;DHT22;4490;49.072;8.804;2023-04-03T14:47:46;9.50;62.40
8910;DHT22;4490;49.072;8.804;2023-04-03T14:50:19;9.50;62.70
8910;DHT22;4490;49.072;8.804;2023-04-03T14:52:47;9.70;63.70
8910;DHT22;4490;49.072;8.804;2023-04-03T14:55:16;9.80;62.20
8910;DHT22;4490;49.072;8.804;2023-04-03T14:57:42;9.90;61.80
8910;DHT22;4490;49.072;8.804;2023-04-03T15:00:16;9.90;61.90
8910;DHT22;4490;49.072;8.804;2023-04-03T15:02:43;9.90;61.80
8910;DHT22;4490;49.072;8.804;2023-04-03T15:05:10;9.80;61.20
8910;DHT22;4490;49.072;8.804;2023-04-03T15:07:45;9.80;61.90
8910;DHT22;4490;49.072;8.804;2023-04-03T15:10:19;9.80;61.90
8910;DHT22;4490;49.072;8.804;2023-04-03T15:12:46;9.80;62.50
8910;DHT22;4490;49.072;8.804;2023-04-03T15:15:13;9.90;62.00
8910;DHT22;4490;49.072;8.804;2023-04-03T15:17:39;10.00;60.90
8910;DHT22;4490;49.072;8.804;2023-04-03T15:20:17;10.10;61.80
8910;DHT22;4490;49.072;8.804;2023-04-03T15:22:43;10.30;61.80
8910;DHT22;4490;49.072;8.804;2023-04-03T15:25:09;10.30;60.50
8910;DHT22;4490;49.072;8.804;2023-04-03T15:27:36;10.30;59.60
8910;DHT22;4490;49.072;8.804;2023-04-03T15:30:03;10.20;58.90
8910;DHT22;4490;49.072;8.804;2023-04-03T15:32:29;10.10;59.10
8910;DHT22;4490;49.072;8.804;2023-04-03T15:34:56;10.00;59.70
8910;DHT22;4490;49.072;8.804;2023-04-03T15:37:22;10.00;60.20
8910;DHT22;4490;49.072;8.804;2023-04-03T15:39:47;10.10;60.40
8910;DHT22;4490;49.072;8.804;2023-04-03T15:42:13;10.10;60.10
8910;DHT22;4490;49.072;8.804;2023-04-03T15:44:38;10.20;59.30
8910;DHT22;4490;49.072;8.804;2023-04-03T15:47:04;10.20;58.50
8910;DHT22;4490;49.072;8.804;2023-04-03T15:49:33;10.10;58.60
8910;DHT22;4490;49.072;8.804;2023-04-03T15:51:59;10.00;58.10
8910;DHT22;4490;49.072;8.804;2023-04-03T15:54:25;9.80;59.30
8910;DHT22;4490;49.072;8.804;2023-04-03T15:56:51;9.70;60.00
8910;DHT22;4490;49.072;8.804;2023-04-03T15:59:17;9.70;60.30
8910;DHT22;4490;49.072;8.804;2023-04-03T16:01:43;9.70;61.00
8910;DHT22;4490;49.072;8.804;2023-04-03T16:04:10;9.80;61.30
8910;DHT22;4490;49.072;8.804;2023-04-03T16:06:36;9.80;60.20
8910;DHT22;4490;49.072;8.804;2023-04-03T16:09:03;9.70;60.10
8910;DHT22;4490;49.072;8.804;2023-04-03T16:11:29;9.60;59.90
8910;DHT22;4490;49.072;8.804;2023-04-03T16:13:55;9.50;59.50
8910;DHT22;4490;49.072;8.804;2023-04-03T16:16:22;9.40;59.80
8910;DHT22;4490;49.072;8.804;2023-04-03T16:18:49;9.30;60.00
8910;DHT22;4490;49.072;8.804;2023-04-03T16:21:16;9.10;60.40
8910;DHT22;4490;49.072;8.804;2023-04-03T16:23:43;9.00;60.70
8910;DHT22;4490;49.072;8.804;2023-04-03T16:26:10;9.00;61.40
8910;DHT22;4490;49.072;8.804;2023-04-03T16:28:36;8.90;61.90
8910;DHT22;4490;49.072;8.804;2023-04-03T16:31:02;8.90;61.70
8910;DHT22;4490;49.072;8.804;2023-04-03T16:33:31;8.90;61.30
8910;DHT22;4490;49.072;8.804;2023-04-03T16:35:56;8.90;60.90
8910;DHT22;4490;49.072;8.804;2023-04-03T16:38:22;8.90;60.50
8910;DHT22;4490;49.072;8.804;2023-04-03T16:40:49;8.90;60.50
8910;DHT22;4490;49.072;8.804;2023-04-03T16:43:15;8.90;61.20
8910;DHT22;4490;49.072;8.804;2023-04-03T16:45:41;8.80;60.20
8910;DHT22;4490;49.072;8.804;2023-04-03T16:48:07;8.80;61.00
8910;DHT22;4490;49.072;8.804;2023-04-03T16:50:33;8.70;61.30
8910;DHT22;4490;49.072;8.804;2023-04-03T16:52:59;8.70;61.20
8910;DHT22;4490;49.072;8.804;2023-04-03T16:55:28;8.70;61.40
8910;DHT22;4490;49.072;8.804;2023-04-03T16:57:53;8.60;61.20
8910;DHT22;4490;49.072;8.804;2023-04-03T17:00:20;8.60;61.60
8910;DHT22;4490;49.072;8.804;2023-04-03T17:02:45;8.60;61.80
8910;DHT22;4490;49.072;8.804;2023-04-03T17:05:11;8.60;61.90
8910;DHT22;4490;49.072;8.804;2023-04-03T17:07:37;8.50;61.40
8910;DHT22;4490;49.072;8.804;2023-04-03T17:10:03;8.40;61.30
8910;DHT22;4490;49.072;8.804;2023-04-03T17:12:28;8.40;61.40
8910;DHT22;4490;49.072;8.804;2023-04-03T17:14:54;8.40;61.40
8910;DHT22;4490;49.072;8.804;2023-04-03T17:17:24;8.30;61.40
8910;DHT22;4490;49.072;8.804;2023-04-03T17:19:51;8.30;61.00
8910;DHT22;4490;49.072;8.804;2023-04-03T17:22:19;8.20;61.50
8910;DHT22;4490;49.072;8.804;2023-04-03T17:24:45;8.20;61.90
8910;DHT22;4490;49.072;8.804;2023-04-03T17:27:10;8.20;61.20
8910;DHT22;4490;49.072;8.804;2023-04-03T17:29:36;8.10;62.00
8910;DHT22;4490;49.072;8.804;2023-04-03T17:32:02;8.10;62.10
8910;DHT22;4490;49.072;8.804;2023-04-03T17:34:27;8.10;61.90
8910;DHT22;4490;49.072;8.804;2023-04-03T17:36:53;8.00;61.60
8910;DHT22;4490;49.072;8.804;2023-04-03T17:39:19;8.00;61.40
8910;DHT22;4490;49.072;8.804;2023-04-03T17:41:45;7.90;61.40
8910;DHT22;4490;49.072;8.804;2023-04-03T17:44:11;7.90;61.60
8910;DHT22;4490;49.072;8.804;2023-04-03T17:46:37;7.80;61.50
8910;DHT22;4490;49.072;8.804;2023-04-03T17:49:02;7.70;61.40
8910;DHT22;4490;49.072;8.804;2023-04-03T17:51:29;7.70;61.80
8910;DHT22;4490;49.072;8.804;2023-04-03T17:53:56;7.60;61.70
8910;DHT22;4490;49.072;8.804;2023-04-03T17:56:24;7.60;62.00
8910;DHT22;4490;49.072;8.804;2023-04-03T17:58:52;7.50;62.60
8910;DHT22;4490;49.072;8.804;2023-04-03T18:01:21;7.40;63.10
8910;DHT22;4490;49.072;8.804;2023-04-03T18:03:48;7.40;63.00
8910;DHT22;4490;49.072;8.804;2023-04-03T18:06:16;7.30;63.20
8910;DHT22;4490;49.072;8.804;2023-04-03T18:08:48;7.30;63.40
8910;DHT22;4490;49.072;8.804;2023-04-03T18:11:15;7.30;63.50
8910;DHT22;4490;49.072;8.804;2023-04-03T18:13:42;7.20;63.30
8910;DHT22;4490;49.072;8.804;2023-04-03T18:16:12;7.10;63.20
8910;DHT22;4490;49.072;8.804;2023-04-03T18:18:41;7.00;62.90
8910;DHT22;4490;49.072;8.804;2023-04-03T18:21:09;6.90;63.40